createdAt,value
2022-08-26T00:02:04.257Z,15.2
2022-08-26T00:06:57.461Z,15.1
2022-08-26T00:09:40.111Z,15.1
2022-08-26T00:12:14.955Z,15.1
2022-08-26T00:14:46.429Z,15.1
2022-08-26T00:17:17.034Z,15.1
2022-08-26T00:19:40.689Z,15.1
2022-08-26T00:22:23.747Z,15.0
2022-08-26T00:24:55.128Z,14.9
2022-08-26T00:27:27.587Z,14.9
2022-08-26T00:29:59.023Z,14.9
2022-08-26T00:32:24.405Z,14.8
2022-08-26T00:34:58.496Z,14.8
2022-08-26T00:37:39.457Z,14.7
2022-08-26T00:40:10.083Z,14.6
2022-08-26T00:42:45.977Z,14.7
2022-08-26T00:47:40.008Z,14.6
2022-08-26T00:50:10.599Z,14.6
2022-08-26T00:52:51.492Z,14.5
2022-08-26T00:55:22.164Z,14.6
2022-08-26T00:57:59.017Z,14.5
2022-08-26T01:00:31.185Z,14.4
2022-08-26T01:02:55.681Z,14.3
2022-08-26T01:05:32.677Z,14.2
2022-08-26T01:08:14.666Z,14.3
2022-08-26T01:10:45.434Z,14.2
2022-08-26T01:13:07.430Z,14.2
2022-08-26T01:15:40.587Z,14.3
2022-08-26T01:18:13.822Z,14.3
2022-08-26T01:20:57.613Z,14.2
2022-08-26T01:23:19.295Z,14.1
2022-08-26T01:28:25.627Z,13.9
2022-08-26T01:31:00.800Z,13.9
2022-08-26T01:33:25.317Z,13.9
2022-08-26T01:36:03.514Z,13.8
2022-08-26T01:38:34.150Z,13.8
2022-08-26T01:41:11.670Z,13.6
2022-08-26T01:43:44.342Z,13.6
2022-08-26T01:46:15.107Z,13.6
2022-08-26T01:48:45.719Z,13.7
2022-08-26T01:51:18.042Z,13.6
2022-08-26T01:53:50.037Z,13.8
2022-08-26T01:56:22.310Z,13.8
2022-08-26T01:58:54.339Z,13.8
2022-08-26T02:01:28.903Z,13.7
2022-08-26T02:03:59.877Z,13.8
2022-08-26T02:09:11.221Z,13.8
2022-08-26T02:11:41.934Z,13.7
2022-08-26T02:14:12.544Z,13.6
2022-08-26T02:16:44.956Z,13.6
2022-08-26T02:19:17.512Z,13.6
2022-08-26T02:21:51.128Z,13.6
2022-08-26T02:24:23.919Z,13.6
2022-08-26T02:26:57.902Z,13.6
2022-08-26T02:29:28.492Z,13.6
2022-08-26T02:31:50.568Z,13.6
2022-08-26T02:34:31.731Z,13.6
2022-08-26T02:37:02.489Z,13.6
2022-08-26T02:39:34.140Z,13.6
2022-08-26T02:42:04.794Z,13.6
2022-08-26T02:44:35.383Z,13.6
2022-08-26T02:49:47.180Z,13.6
2022-08-26T02:52:18.357Z,13.6
2022-08-26T02:54:49.573Z,13.6
2022-08-26T02:57:20.273Z,13.6
2022-08-26T02:59:52.728Z,13.5
2022-08-26T03:02:23.369Z,13.5
2022-08-26T03:05:04.187Z,13.5
2022-08-26T03:07:36.309Z,13.4
2022-08-26T03:10:10.589Z,13.4
2022-08-26T03:12:33.130Z,13.5
2022-08-26T03:15:15.624Z,13.4
2022-08-26T03:17:48.996Z,13.5
2022-08-26T03:20:21.860Z,13.2
2022-08-26T03:22:54.230Z,12.9
2022-08-26T03:25:18.867Z,12.9
2022-08-26T03:30:19.784Z,12.8
2022-08-26T03:33:05.289Z,12.8
2022-08-26T03:35:36.595Z,12.8
2022-08-26T03:38:07.684Z,12.8
2022-08-26T03:40:38.711Z,12.8
2022-08-26T03:43:01.771Z,12.8
2022-08-26T03:45:33.162Z,12.8
2022-08-26T03:48:17.567Z,12.9
2022-08-26T03:50:51.785Z,12.8
2022-08-26T03:53:23.602Z,12.8
2022-08-26T03:55:46.601Z,12.8
2022-08-26T03:58:17.910Z,12.8
2022-08-26T04:00:48.587Z,12.9
2022-08-26T04:03:29.321Z,12.8
2022-08-26T04:05:59.978Z,12.8
2022-08-26T04:11:00.701Z,12.9
2022-08-26T04:13:32.791Z,12.9
2022-08-26T04:16:03.736Z,12.9
2022-08-26T04:21:16.437Z,13.1
2022-08-26T04:23:48.003Z,13.1
2022-08-26T04:26:22.472Z,13.1
2022-08-26T04:28:54.225Z,13.2
2022-08-26T04:31:34.835Z,13.2
2022-08-26T04:34:06.118Z,13.2
2022-08-26T04:36:28.767Z,13.2
2022-08-26T04:39:00.046Z,13.2
2022-08-26T04:41:31.602Z,13.4
2022-08-26T04:44:04.045Z,13.4
2022-08-26T04:46:44.908Z,13.4
2022-08-26T04:51:46.132Z,13.6
2022-08-26T04:54:18.064Z,13.6
2022-08-26T04:56:52.264Z,13.6
2022-08-26T04:59:23.100Z,13.7
2022-08-26T05:01:59.894Z,13.8
2022-08-26T05:04:30.553Z,13.9
2022-08-26T05:07:02.960Z,13.9
2022-08-26T05:09:33.617Z,14.0
2022-08-26T05:12:04.813Z,14.1
2022-08-26T05:14:46.985Z,14.2
2022-08-26T05:17:17.899Z,14.3
2022-08-26T05:19:48.547Z,14.5
2022-08-26T05:22:20.988Z,14.6
2022-08-26T05:24:51.600Z,14.8
2022-08-26T05:27:22.345Z,14.9
2022-08-26T05:32:33.461Z,15.3
2022-08-26T05:34:55.758Z,15.0
2022-08-26T05:37:29.457Z,14.9
2022-08-26T05:40:00.124Z,14.7
2022-08-26T05:42:31.290Z,14.9
2022-08-26T05:45:12.952Z,14.8
2022-08-26T05:47:43.533Z,15.0
2022-08-26T05:50:16.379Z,15.2
2022-08-26T05:52:48.325Z,15.2
2022-08-26T05:55:20.196Z,15.5
2022-08-26T05:57:50.772Z,15.8
2022-08-26T06:00:23.199Z,15.9
2022-08-26T06:02:54.452Z,16.1
2022-08-26T06:05:25.692Z,16.4
2022-08-26T06:07:59.863Z,16.6
2022-08-26T06:13:11.712Z,16.9
2022-08-26T06:15:42.787Z,17.3
2022-08-26T06:18:16.442Z,17.5
2022-08-26T06:20:39.301Z,17.6
2022-08-26T06:23:18.673Z,18.2
2022-08-26T06:25:40.736Z,18.3
2022-08-26T06:28:22.631Z,18.6
2022-08-26T06:30:55.842Z,19.2
2022-08-26T06:33:26.866Z,19.0
2022-08-26T06:35:59.537Z,19.0
2022-08-26T06:38:31.296Z,19.1
2022-08-26T06:41:02.926Z,19.4
2022-08-26T06:43:35.766Z,20.0
2022-08-26T06:46:16.345Z,20.6
2022-08-26T06:48:47.113Z,21.1
2022-08-26T06:53:38.602Z,21.3
2022-08-26T06:56:11.923Z,21.7
2022-08-26T06:58:52.843Z,21.8
2022-08-26T07:01:28.282Z,21.6
2022-08-26T07:03:54.228Z,21.5
2022-08-26T07:06:23.252Z,21.4
2022-08-26T07:08:56.011Z,21.0
2022-08-26T07:11:30.927Z,21.0
2022-08-26T07:14:11.681Z,21.2
2022-08-26T07:16:42.504Z,21.4
2022-08-26T07:19:13.312Z,21.5
2022-08-26T07:21:41.345Z,21.8
2022-08-26T07:24:12.510Z,22.2
2022-08-26T07:29:25.531Z,23.2
2022-08-26T07:34:26.425Z,23.6
2022-08-26T07:36:57.245Z,23.8
2022-08-26T07:39:31.371Z,23.2
2022-08-26T07:42:07.240Z,23.2
2022-08-26T07:44:39.030Z,23.4
2022-08-26T07:47:24.641Z,23.8
2022-08-26T07:49:36.247Z,23.6
2022-08-26T07:52:13.052Z,23.6
2022-08-26T07:54:38.512Z,23.1
2022-08-26T07:57:20.364Z,22.8
2022-08-26T07:59:51.575Z,22.6
2022-08-26T08:02:24.865Z,22.4
2022-08-26T08:04:57.342Z,22.1
2022-08-26T08:07:38.822Z,22.0
2022-08-26T08:09:57.774Z,22.1
2022-08-26T08:15:05.505Z,22.4
2022-08-26T08:17:36.097Z,22.7
2022-08-26T08:20:11.316Z,22.7
2022-08-26T08:22:43.809Z,22.8
2022-08-26T08:25:24.440Z,22.6
2022-08-26T08:27:55.666Z,22.6
2022-08-26T08:30:20.957Z,22.7
2022-08-26T08:32:55.602Z,22.5
2022-08-26T08:35:26.190Z,22.4
2022-08-26T08:37:56.989Z,22.3
2022-08-26T08:40:37.789Z,22.0
2022-08-26T08:43:04.470Z,22.0
2022-08-26T08:45:36.699Z,21.9
2022-08-26T08:48:10.707Z,21.8
2022-08-26T08:50:38.888Z,21.8
2022-08-26T08:55:52.087Z,21.9
2022-08-26T08:58:22.807Z,21.9
2022-08-26T09:00:53.752Z,21.9
2022-08-26T09:03:24.959Z,22.0
2022-08-26T09:05:55.638Z,22.0
2022-08-26T09:08:26.702Z,21.9
2022-08-26T09:11:00.389Z,22.0
2022-08-26T09:13:41.006Z,22.1
2022-08-26T09:16:02.925Z,22.3
2022-08-26T09:18:33.986Z,22.4
2022-08-26T09:21:06.629Z,22.6
2022-08-26T09:23:49.737Z,22.5
2022-08-26T09:26:23.719Z,22.6
2022-08-26T09:28:50.049Z,22.6
2022-08-26T09:31:20.815Z,22.6
2022-08-26T09:39:02.193Z,22.6
2022-08-26T09:41:32.771Z,22.6
2022-08-26T09:44:03.855Z,22.6
2022-08-26T09:46:36.213Z,22.6
2022-08-26T09:49:08.680Z,22.6
2022-08-26T09:51:32.966Z,22.6
2022-08-26T09:54:13.583Z,22.5
2022-08-26T09:56:45.640Z,22.5
2022-08-26T09:59:18.876Z,22.4
2022-08-26T10:01:50.799Z,22.4
2022-08-26T10:04:22.549Z,22.1
2022-08-26T10:06:53.487Z,21.9
2022-08-26T10:09:36.338Z,21.8
2022-08-26T10:12:02.074Z,21.6
2022-08-26T10:17:02.839Z,21.4
2022-08-26T10:19:41.929Z,21.4
2022-08-26T10:22:13.372Z,21.3
2022-08-26T10:24:43.974Z,21.3
2022-08-26T10:27:16.949Z,21.2
2022-08-26T10:29:50.735Z,20.9
2022-08-26T10:32:24.044Z,20.8
2022-08-26T10:34:51.785Z,20.7
2022-08-26T10:37:33.436Z,20.7
2022-08-26T10:40:04.120Z,20.6
2022-08-26T10:42:35.095Z,20.4
2022-08-26T10:45:06.572Z,20.4
2022-08-26T10:47:32.251Z,20.3
2022-08-26T10:50:03.622Z,20.3
2022-08-26T10:52:44.407Z,20.3
2022-08-26T10:57:47.918Z,20.1
2022-08-26T11:00:19.473Z,20.0
2022-08-26T11:02:47.049Z,19.8
2022-08-26T11:05:32.295Z,19.8
2022-08-26T11:08:03.501Z,19.8
2022-08-26T11:10:34.555Z,19.6
2022-08-26T11:12:59.110Z,19.8
2022-08-26T11:15:30.569Z,19.6
2022-08-26T11:18:03.149Z,19.7
2022-08-26T11:20:45.409Z,19.8
2022-08-26T11:23:10.577Z,20.0
2022-08-26T11:25:41.664Z,20.1
2022-08-26T11:28:12.381Z,20.4
2022-08-26T11:30:43.910Z,20.5
2022-08-26T11:33:18.775Z,20.7
2022-08-26T11:38:31.114Z,20.8
2022-08-26T11:41:03.350Z,21.0
2022-08-26T11:43:35.335Z,21.2
2022-08-26T11:45:57.076Z,21.4
2022-08-26T11:48:29.711Z,21.5
2022-08-26T11:51:10.501Z,21.6
2022-08-26T11:53:42.238Z,21.5
2022-08-26T11:56:12.833Z,21.5
2022-08-26T11:58:46.148Z,21.6
2022-08-26T12:01:17.211Z,21.6
2022-08-26T12:04:01.735Z,21.6
2022-08-26T12:06:23.413Z,21.3
2022-08-26T12:08:56.188Z,21.3
2022-08-26T12:11:29.631Z,21.5
2022-08-26T12:14:00.534Z,21.6
2022-08-26T12:19:11.278Z,22.1
2022-08-26T12:21:45.534Z,22.2
2022-08-26T12:24:16.779Z,22.4
2022-08-26T12:26:40.921Z,22.7
2022-08-26T12:29:19.947Z,23.0
2022-08-26T12:31:40.862Z,23.3
2022-08-26T12:34:21.640Z,23.3
2022-08-26T12:36:52.716Z,23.4
2022-08-26T12:39:24.912Z,23.5
2022-08-26T12:41:55.512Z,23.6
2022-08-26T12:44:26.483Z,23.9
2022-08-26T12:47:04.740Z,24.2
2022-08-26T12:49:43.087Z,24.4
2022-08-26T12:52:13.698Z,24.5
2022-08-26T12:54:44.311Z,24.9
2022-08-26T12:59:47.589Z,25.1
2022-08-26T13:02:18.175Z,25.0
2022-08-26T13:05:00.640Z,24.9
2022-08-26T13:07:21.456Z,25.0
2022-08-26T13:09:52.062Z,25.0
2022-08-26T13:12:32.646Z,24.8
2022-08-26T13:15:03.268Z,24.8
2022-08-26T13:17:43.875Z,24.9
2022-08-26T13:22:38.783Z,25.0
2022-08-26T13:25:09.881Z,25.1
2022-08-26T13:27:40.476Z,25.0
2022-08-26T13:32:51.217Z,25.0
2022-08-26T13:35:24.925Z,25.3
2022-08-26T13:40:25.742Z,25.5
2022-08-26T13:42:56.440Z,25.5
2022-08-26T13:45:27.112Z,25.7
2022-08-26T13:48:07.807Z,25.6
2022-08-26T13:50:41.998Z,25.8
2022-08-26T13:53:13.623Z,25.8
2022-08-26T13:55:44.263Z,26.1
2022-08-26T13:58:08.460Z,26.1
2022-08-26T14:00:49.181Z,26.1
2022-08-26T14:03:20.020Z,26.3
2022-08-26T14:05:50.807Z,26.4
2022-08-26T14:08:21.395Z,26.3
2022-08-26T14:10:52.028Z,26.5
2022-08-26T14:13:22.623Z,26.9
2022-08-26T14:16:03.290Z,27.0
2022-08-26T14:21:04.395Z,27.1
2022-08-26T14:26:05.134Z,27.6
2022-08-26T14:28:39.839Z,27.4
2022-08-26T14:31:20.476Z,27.5
2022-08-26T14:33:51.299Z,27.6
2022-08-26T14:36:21.889Z,28.2
2022-08-26T14:38:52.775Z,28.6
2022-08-26T14:41:23.370Z,29.1
2022-08-26T14:44:03.990Z,29.0
2022-08-26T14:46:34.638Z,29.2
2022-08-26T14:49:08.620Z,29.2
2022-08-26T14:51:41.030Z,28.6
2022-08-26T14:54:11.662Z,28.3
2022-08-26T14:56:42.246Z,28.5
2022-08-26T15:01:53.092Z,27.8
2022-08-26T15:04:22.549Z,28.4
2022-08-26T15:06:53.160Z,28.4
2022-08-26T15:09:23.746Z,28.4
2022-08-26T15:11:54.323Z,28.5
2022-08-26T15:14:34.925Z,28.3
2022-08-26T15:17:05.542Z,28.5
2022-08-26T15:19:36.154Z,28.2
2022-08-26T15:22:06.748Z,28.2
2022-08-26T15:24:40.158Z,28.9
2022-08-26T15:27:04.298Z,29.0
2022-08-26T15:29:44.929Z,28.5
2022-08-26T15:32:15.532Z,28.5
2022-08-26T15:34:46.121Z,28.9
2022-08-26T15:37:19.562Z,28.1
2022-08-26T15:42:30.573Z,28.4
2022-08-26T15:45:01.389Z,28.1
2022-08-26T15:50:05.463Z,27.8
2022-08-26T15:52:36.491Z,27.8
2022-08-26T15:55:07.117Z,27.5
2022-08-26T15:57:48.686Z,27.4
2022-08-26T16:00:20.233Z,27.3
2022-08-26T16:02:50.805Z,27.2
2022-08-26T16:05:21.430Z,27.1
2022-08-26T16:07:52.224Z,26.6
2022-08-26T16:10:22.893Z,26.4
2022-08-26T16:12:59.511Z,26.1
2022-08-26T16:15:33.400Z,25.8
2022-08-26T16:18:04.135Z,25.4
2022-08-26T16:23:04.941Z,24.8
2022-08-26T16:25:35.609Z,24.5
2022-08-26T16:28:16.221Z,23.2
2022-08-26T16:30:48.650Z,21.8
2022-08-26T16:33:21.516Z,20.6
2022-08-26T16:38:21.710Z,19.6
2022-08-26T16:41:03.890Z,19.5
2022-08-26T16:43:34.481Z,19.2
2022-08-26T16:46:05.130Z,18.5
2022-08-26T16:48:36.235Z,18.1
2022-08-26T16:51:06.848Z,17.8
2022-08-26T16:53:37.498Z,17.4
2022-08-26T16:56:18.126Z,17.1
2022-08-26T16:58:44.557Z,16.8
2022-08-26T17:03:45.266Z,16.5
2022-08-26T17:06:15.835Z,16.4
2022-08-26T17:08:46.480Z,16.4
2022-08-26T17:11:27.061Z,16.4
2022-08-26T17:13:57.634Z,16.2
2022-08-26T17:16:28.251Z,16.3
2022-08-26T17:18:58.879Z,16.3
2022-08-26T17:21:29.464Z,16.3
2022-08-26T17:24:00.043Z,16.4
2022-08-26T17:26:41.078Z,16.3
2022-08-26T17:29:16.279Z,16.1
2022-08-26T17:31:46.875Z,16.1
2022-08-26T17:34:17.464Z,16.0
2022-08-26T17:36:48.038Z,15.9
2022-08-26T17:39:18.649Z,15.8
2022-08-26T17:44:29.392Z,15.7
2022-08-26T17:46:59.969Z,15.6
2022-08-26T17:49:30.562Z,15.5
2022-08-26T17:52:01.161Z,15.4
2022-08-26T17:54:42.211Z,15.4
2022-08-26T17:57:12.821Z,15.3
2022-08-26T17:59:39.059Z,15.3
2022-08-26T18:02:13.983Z,15.2
2022-08-26T18:04:44.690Z,15.3
2022-08-26T18:07:15.287Z,15.3
2022-08-26T18:09:54.174Z,15.3
2022-08-26T18:12:24.786Z,15.4
2022-08-26T18:14:57.430Z,15.5
2022-08-26T18:17:29.322Z,15.4
2022-08-26T18:19:59.909Z,15.4
2022-08-26T18:25:10.671Z,15.4
2022-08-26T18:27:41.254Z,15.4
2022-08-26T18:30:15.947Z,15.4
2022-08-26T18:32:47.037Z,15.4
2022-08-26T18:35:17.620Z,15.4
2022-08-26T18:37:48.210Z,15.4
2022-08-26T18:40:24.068Z,15.4
2022-08-26T18:42:54.818Z,15.4
2022-08-26T18:45:25.400Z,15.4
2022-08-26T18:47:56.053Z,15.4
2022-08-26T18:50:26.718Z,15.4
2022-08-26T18:53:07.774Z,15.3
2022-08-26T18:55:38.389Z,15.2
2022-08-26T18:58:09.034Z,15.2
2022-08-26T19:00:41.500Z,15.2
2022-08-26T19:05:42.455Z,15.2
2022-08-26T19:08:23.080Z,15.1
2022-08-26T19:10:55.087Z,15.1
2022-08-26T19:13:30.335Z,15.0
2022-08-26T19:16:01.024Z,14.9
2022-08-26T19:18:31.675Z,14.9
2022-08-26T19:20:54.366Z,14.9
2022-08-26T19:23:37.068Z,14.8
2022-08-26T19:26:07.799Z,14.8
2022-08-26T19:28:38.434Z,14.8
2022-08-26T19:31:09.002Z,14.8
2022-08-26T19:33:39.688Z,14.8
2022-08-26T19:36:14.183Z,14.8
2022-08-26T19:38:55.346Z,14.8
2022-08-26T19:41:31.679Z,14.8
2022-08-26T19:46:27.590Z,15.6
2022-08-26T19:48:59.248Z,16.0
2022-08-26T19:51:39.863Z,16.2
2022-08-26T19:54:10.466Z,16.1
2022-08-26T19:56:41.063Z,16.0
2022-08-26T19:59:11.671Z,15.9
2022-08-26T20:01:42.266Z,15.8
2022-08-26T20:04:11.663Z,15.7
2022-08-26T20:06:53.726Z,15.6
2022-08-26T20:09:19.323Z,15.5
2022-08-26T20:11:49.921Z,15.5
2022-08-26T20:14:23.042Z,15.4
2022-08-26T20:16:53.881Z,15.4
2022-08-26T20:19:24.691Z,15.3
2022-08-26T20:22:07.906Z,15.3
2022-08-26T20:27:08.651Z,15.3
2022-08-26T20:29:38.216Z,15.3
2022-08-26T20:32:08.849Z,15.3
2022-08-26T20:34:35.262Z,15.3
2022-08-26T20:37:17.331Z,15.3
2022-08-26T20:39:52.073Z,15.2
2022-08-26T20:42:22.882Z,15.2
2022-08-26T20:44:54.555Z,15.2
2022-08-26T20:47:25.389Z,15.2
2022-08-26T20:50:08.732Z,15.2
2022-08-26T20:52:39.339Z,15.2
2022-08-26T20:55:09.965Z,15.2
2022-08-26T20:57:40.552Z,15.1
2022-08-26T21:00:11.121Z,15.1
2022-08-26T21:02:42.615Z,15.1
2022-08-26T21:07:53.365Z,15.0
2022-08-26T21:10:25.027Z,15.1
2022-08-26T21:12:47.513Z,15.1
2022-08-26T21:15:18.901Z,15.1
2022-08-26T21:17:51.687Z,15.0
2022-08-26T21:20:32.392Z,14.8
2022-08-26T21:23:02.957Z,14.7
2022-08-26T21:25:38.970Z,14.6
2022-08-26T21:28:09.737Z,14.6
2022-08-26T21:30:40.447Z,14.6
2022-08-26T21:33:11.050Z,14.5
2022-08-26T21:35:51.668Z,14.5
2022-08-26T21:38:23.788Z,14.5
2022-08-26T21:40:54.402Z,14.5
2022-08-26T21:43:16.408Z,14.5
2022-08-26T21:48:29.550Z,14.6
2022-08-26T21:51:00.394Z,14.6
2022-08-26T21:53:31.020Z,14.6
2022-08-26T21:56:01.631Z,14.5
2022-08-26T21:58:32.214Z,14.5
2022-08-26T22:01:03.071Z,14.5
2022-08-26T22:03:47.172Z,14.5
2022-08-26T22:06:18.413Z,14.5
2022-08-26T22:08:49.011Z,14.6
2022-08-26T22:11:19.572Z,14.6
2022-08-26T22:13:50.176Z,14.6
2022-08-26T22:16:20.803Z,14.6
2022-08-26T22:19:00.553Z,14.7
2022-08-26T22:21:37.411Z,14.8
2022-08-26T22:24:08.000Z,14.8
2022-08-26T22:29:08.743Z,14.9
2022-08-26T22:31:39.397Z,14.9
2022-08-26T22:34:20.167Z,15.0
2022-08-26T22:36:50.728Z,15.0
2022-08-26T22:39:21.344Z,15.0
2022-08-26T22:41:51.956Z,15.1
2022-08-26T22:44:22.539Z,15.2
2022-08-26T22:47:03.130Z,15.2
2022-08-26T22:49:33.706Z,15.2
2022-08-26T22:52:04.309Z,15.2
2022-08-26T22:57:05.036Z,15.2
2022-08-26T22:59:35.603Z,15.2
2022-08-26T23:02:16.203Z,15.1
2022-08-26T23:04:46.818Z,15.1
2022-08-26T23:09:47.560Z,15.0
2022-08-26T23:12:18.149Z,15.0
2022-08-26T23:14:48.752Z,14.9
2022-08-26T23:17:29.375Z,14.9
2022-08-26T23:19:58.960Z,14.8
2022-08-26T23:22:29.529Z,14.8
2022-08-26T23:25:00.145Z,14.7
2022-08-26T23:27:30.792Z,14.6
2022-08-26T23:30:01.382Z,14.5
2022-08-26T23:32:41.983Z,14.4
2022-08-26T23:35:12.568Z,14.4
2022-08-26T23:37:45.065Z,14.4
2022-08-26T23:40:20.308Z,14.3
2022-08-26T23:42:51.015Z,14.3
2022-08-26T23:45:31.644Z,14.3
2022-08-26T23:50:32.539Z,14.3
2022-08-26T23:53:03.124Z,14.2
2022-08-26T23:55:33.736Z,14.2
2022-08-26T23:58:04.312Z,14.1
